sensor_id;sensor_type;location;lat;lon;timestamp;pressure;altitude;pressure_sealevel;temperature;humidity
75045;BME280;63614;56.026;35.960;2023-09-30T00:00:25;99630.75;;;11.53;85.40
75045;BME280;63614;56.026;35.960;2023-09-30T00:02:51;99620.91;;;11.48;85.50
75045;BME280;63614;56.026;35.960;2023-09-30T00:05:16;99622.91;;;11.46;85.42
75045;BME280;63614;56.026;35.960;2023-09-30T00:07:45;99625.25;;;11.41;85.40
75045;BME280;63614;56.026;35.960;2023-09-30T00:10:10;99627.03;;;11.40;85.54
75045;BME280;63614;56.026;35.960;2023-09-30T00:12:36;99623.41;;;11.35;85.66
75045;BME280;63614;56.026;35.960;2023-09-30T00:15:02;99629.03;;;11.38;85.51
75045;BME280;63614;56.026;35.960;2023-09-30T00:17:29;99627.91;;;11.26;85.90
75045;BME280;63614;56.026;35.960;2023-09-30T00:19:54;99623.91;;;11.23;85.82
75045;BME280;63614;56.026;35.960;2023-09-30T00:22:20;99632.06;;;11.20;86.01
75045;BME280;63614;56.026;35.960;2023-09-30T00:24:46;99622.28;;;11.22;86.07
75045;BME280;63614;56.026;35.960;2023-09-30T00:27:11;99617.63;;;11.18;86.10
75045;BME280;63614;56.026;35.960;2023-09-30T00:29:38;99627.00;;;11.12;86.52
75045;BME280;63614;56.026;35.960;2023-09-30T00:32:03;99620.97;;;11.12;86.74
75045;BME280;63614;56.026;35.960;2023-09-30T00:34:35;99627.00;;;11.12;86.71
75045;BME280;63614;56.026;35.960;2023-09-30T00:37:01;99621.16;;;11.10;86.84
75045;BME280;63614;56.026;35.960;2023-09-30T00:39:27;99624.56;;;11.11;86.87
75045;BME280;63614;56.026;35.960;2023-09-30T00:41:56;99626.72;;;11.07;86.84
75045;BME280;63614;56.026;35.960;2023-09-30T00:44:21;99625.13;;;11.06;86.81
75045;BME280;63614;56.026;35.960;2023-09-30T00:46:47;99613.09;;;11.05;86.98
75045;BME280;63614;56.026;35.960;2023-09-30T00:49:13;99620.09;;;11.04;86.95
75045;BME280;63614;56.026;35.960;2023-09-30T00:51:39;99613.28;;;11.03;87.32
75045;BME280;63614;56.026;35.960;2023-09-30T00:54:04;99619.84;;;10.99;87.30
75045;BME280;63614;56.026;35.960;2023-09-30T00:56:31;99615.03;;;10.96;87.32
75045;BME280;63614;56.026;35.960;2023-09-30T00:58:57;99609.34;;;10.93;87.63
75045;BME280;63614;56.026;35.960;2023-09-30T01:01:23;99607.28;;;10.88;87.72
75045;BME280;63614;56.026;35.960;2023-09-30T01:03:49;99604.09;;;10.86;88.00
75045;BME280;63614;56.026;35.960;2023-09-30T01:06:14;99602.28;;;10.86;87.88
75045;BME280;63614;56.026;35.960;2023-09-30T01:08:40;99598.63;;;10.81;88.01
75045;BME280;63614;56.026;35.960;2023-09-30T01:11:06;99603.03;;;10.80;88.09
75045;BME280;63614;56.026;35.960;2023-09-30T01:13:35;99601.66;;;10.84;88.24
75045;BME280;63614;56.026;35.960;2023-09-30T01:16:05;99599.84;;;10.85;88.21
75045;BME280;63614;56.026;35.960;2023-09-30T01:18:31;99598.44;;;10.82;88.28
75045;BME280;63614;56.026;35.960;2023-09-30T01:20:57;99603.03;;;10.80;88.46
75045;BME280;63614;56.026;35.960;2023-09-30T01:23:23;99593.25;;;10.82;88.28
75045;BME280;63614;56.026;35.960;2023-09-30T01:25:49;99595.84;;;10.82;88.22
75045;BME280;63614;56.026;35.960;2023-09-30T01:28:15;99595.41;;;10.79;88.30
75045;BME280;63614;56.026;35.960;2023-09-30T01:30:42;99595.41;;;10.79;88.58
75045;BME280;63614;56.026;35.960;2023-09-30T01:33:08;99594.94;;;10.75;88.41
75045;BME280;63614;56.026;35.960;2023-09-30T01:35:34;99594.94;;;10.75;88.37
75045;BME280;63614;56.026;35.960;2023-09-30T01:38:00;99592.91;;;10.70;88.54
75045;BME280;63614;56.026;35.960;2023-09-30T01:40:25;99589.50;;;10.70;88.68
75045;BME280;63614;56.026;35.960;2023-09-30T01:42:51;99585.28;;;10.69;88.57
75045;BME280;63614;56.026;35.960;2023-09-30T01:45:17;99585.50;;;10.67;88.46
75045;BME280;63614;56.026;35.960;2023-09-30T01:47:42;99587.81;;;10.62;88.39
75045;BME280;63614;56.026;35.960;2023-09-30T01:50:08;99585.38;;;10.61;88.30
75045;BME280;63614;56.026;35.960;2023-09-30T01:52:33;99581.19;;;10.60;88.38
75045;BME280;63614;56.026;35.960;2023-09-30T01:55:00;99585.75;;;10.58;88.39
75045;BME280;63614;56.026;35.960;2023-09-30T01:57:25;99582.72;;;10.54;88.43
75045;BME280;63614;56.026;35.960;2023-09-30T01:59:51;99574.84;;;10.47;88.60
75045;BME280;63614;56.026;35.960;2023-09-30T02:02:17;99574.03;;;10.47;88.68
75045;BME280;63614;56.026;35.960;2023-09-30T02:04:42;99572.97;;;10.41;89.32
75045;BME280;63614;56.026;35.960;2023-09-30T02:07:09;99577.00;;;10.44;89.45
75045;BME280;63614;56.026;35.960;2023-09-30T02:09:34;99572.97;;;10.41;89.46
75045;BME280;63614;56.026;35.960;2023-09-30T02:12:00;99573.75;;;10.42;89.27
75045;BME280;63614;56.026;35.960;2023-09-30T02:14:26;99568.75;;;10.40;89.10
75045;BME280;63614;56.026;35.960;2023-09-30T02:16:51;99573.31;;;10.38;89.56
75045;BME280;63614;56.026;35.960;2023-09-30T02:19:18;99568.13;;;10.38;89.20
75045;BME280;63614;56.026;35.960;2023-09-30T02:21:45;99573.50;;;10.36;89.32
75045;BME280;63614;56.026;35.960;2023-09-30T02:24:10;99576.72;;;10.39;89.27
75045;BME280;63614;56.026;35.960;2023-09-30T02:26:36;99572.72;;;10.36;89.33
75045;BME280;63614;56.026;35.960;2023-09-30T02:29:03;99569.31;;;10.35;89.06
75045;BME280;63614;56.026;35.960;2023-09-30T02:31:29;99568.47;;;10.35;89.32
75045;BME280;63614;56.026;35.960;2023-09-30T02:33:54;99566.72;;;10.35;89.52
75045;BME280;63614;56.026;35.960;2023-09-30T02:36:20;99566.88;;;10.34;89.63
75045;BME280;63614;56.026;35.960;2023-09-30T02:38:45;99561.69;;;10.34;89.62
75045;BME280;63614;56.026;35.960;2023-09-30T02:41:11;99564.91;;;10.36;89.38
75045;BME280;63614;56.026;35.960;2023-09-30T02:43:37;99562.66;;;10.33;89.46
75045;BME280;63614;56.026;35.960;2023-09-30T02:46:03;99555.47;;;10.35;89.66
75045;BME280;63614;56.026;35.960;2023-09-30T02:48:29;99555.81;;;10.32;89.37
75045;BME280;63614;56.026;35.960;2023-09-30T02:50:54;99553.38;;;10.30;89.59
75045;BME280;63614;56.026;35.960;2023-09-30T02:53:20;99556.16;;;10.29;89.62
75045;BME280;63614;56.026;35.960;2023-09-30T02:55:46;99541.75;;;10.26;89.56
75045;BME280;63614;56.026;35.960;2023-09-30T02:58:11;99547.94;;;10.25;89.81
75045;BME280;63614;56.026;35.960;2023-09-30T03:00:37;99546.88;;;10.20;89.57
75045;BME280;63614;56.026;35.960;2023-09-30T03:03:03;99544.28;;;10.20;89.88
75045;BME280;63614;56.026;35.960;2023-09-30T03:05:29;99545.97;;;10.12;90.07
75045;BME280;63614;56.026;35.960;2023-09-30T03:07:58;99540.78;;;10.12;89.97
75045;BME280;63614;56.026;35.960;2023-09-30T03:10:25;99545.81;;;10.14;90.15
75045;BME280;63614;56.026;35.960;2023-09-30T03:12:55;99545.63;;;10.15;89.78
75045;BME280;63614;56.026;35.960;2023-09-30T03:15:21;99543.03;;;10.15;89.67
75045;BME280;63614;56.026;35.960;2023-09-30T03:17:46;99539.44;;;10.16;89.46
75045;BME280;63614;56.026;35.960;2023-09-30T03:20:12;99538.53;;;10.09;89.95
75045;BME280;63614;56.026;35.960;2023-09-30T03:22:40;99532.19;;;10.12;89.79
75045;BME280;63614;56.026;35.960;2023-09-30T03:25:06;99535.88;;;10.03;90.41
75045;BME280;63614;56.026;35.960;2023-09-30T03:27:32;99537.84;;;10.00;90.21
75045;BME280;63614;56.026;35.960;2023-09-30T03:29:58;99540.88;;;10.04;90.48
75045;BME280;63614;56.026;35.960;2023-09-30T03:32:23;99531.47;;;10.03;90.43
75045;BME280;63614;56.026;35.960;2023-09-30T03:34:50;99531.91;;;10.07;90.30
75045;BME280;63614;56.026;35.960;2023-09-30T03:37:17;99528.31;;;10.08;90.22
75045;BME280;63614;56.026;35.960;2023-09-30T03:39:43;99530.75;;;10.09;90.35
75045;BME280;63614;56.026;35.960;2023-09-30T03:42:09;99527.34;;;10.09;90.34
75045;BME280;63614;56.026;35.960;2023-09-30T03:44:37;99527.09;;;10.04;90.52
75045;BME280;63614;56.026;35.960;2023-09-30T03:47:03;99530.63;;;10.17;90.28
75045;BME280;63614;56.026;35.960;2023-09-30T03:49:28;99530.47;;;10.19;90.07
75045;BME280;63614;56.026;35.960;2023-09-30T03:51:54;99527.31;;;10.24;89.79
75045;BME280;63614;56.026;35.960;2023-09-30T03:54:19;99527.97;;;10.41;89.34
75045;BME280;63614;56.026;35.960;2023-09-30T03:56:45;99529.66;;;10.48;88.95
75045;BME280;63614;56.026;35.960;2023-09-30T03:59:13;99529.00;;;10.61;88.26
75045;BME280;63614;56.026;35.960;2023-09-30T04:01:39;99525.72;;;10.74;87.70
75045;BME280;63614;56.026;35.960;2023-09-30T04:04:08;99521.78;;;10.85;87.14
75045;BME280;63614;56.026;35.960;2023-09-30T04:06:37;99528.53;;;11.01;86.76
75045;BME280;63614;56.026;35.960;2023-09-30T04:09:04;99529.63;;;11.06;86.05
75045;BME280;63614;56.026;35.960;2023-09-30T04:11:35;99527.28;;;11.18;85.29
75045;BME280;63614;56.026;35.960;2023-09-30T04:14:01;99522.53;;;11.50;84.33
75045;BME280;63614;56.026;35.960;2023-09-30T04:16:26;99525.31;;;11.77;82.56
75045;BME280;63614;56.026;35.960;2023-09-30T04:18:54;99539.09;;;11.99;81.85
75045;BME280;63614;56.026;35.960;2023-09-30T04:21:20;99523.13;;;12.15;80.86
75045;BME280;63614;56.026;35.960;2023-09-30T04:23:46;99524.56;;;12.25;80.59
75045;BME280;63614;56.026;35.960;2023-09-30T04:26:12;99523.59;;;12.32;80.37
75045;BME280;63614;56.026;35.960;2023-09-30T04:28:37;99521.06;;;12.52;79.48
75045;BME280;63614;56.026;35.960;2023-09-30T04:31:03;99528.13;;;12.65;78.69
75045;BME280;63614;56.026;35.960;2023-09-30T04:33:30;99531.59;;;12.93;78.04
75045;BME280;63614;56.026;35.960;2023-09-30T04:35:55;99525.38;;;13.00;77.49
75045;BME280;63614;56.026;35.960;2023-09-30T04:38:21;99516.72;;;13.20;76.85
75045;BME280;63614;56.026;35.960;2023-09-30T04:40:47;99526.00;;;13.42;76.13
75045;BME280;63614;56.026;35.960;2023-09-30T04:43:14;99519.91;;;13.69;75.27
75045;BME280;63614;56.026;35.960;2023-09-30T04:45:39;99522.31;;;13.84;74.76
75045;BME280;63614;56.026;35.960;2023-09-30T04:48:05;99521.22;;;14.05;73.70
75045;BME280;63614;56.026;35.960;2023-09-30T04:50:31;99518.97;;;14.15;73.75
75045;BME280;63614;56.026;35.960;2023-09-30T04:52:56;99521.13;;;14.31;73.02
75045;BME280;63614;56.026;35.960;2023-09-30T04:55:23;99522.09;;;14.37;72.94
75045;BME280;63614;56.026;35.960;2023-09-30T04:57:49;99522.25;;;14.49;72.63
75045;BME280;63614;56.026;35.960;2023-09-30T05:00:15;99523.13;;;14.36;72.73
75045;BME280;63614;56.026;35.960;2023-09-30T05:02:43;99515.69;;;14.33;73.11
75045;BME280;63614;56.026;35.960;2023-09-30T05:05:10;99509.84;;;14.38;73.28
75045;BME280;63614;56.026;35.960;2023-09-30T05:07:36;99510.72;;;14.57;72.64
75045;BME280;63614;56.026;35.960;2023-09-30T05:10:01;99506.09;;;14.59;72.93
75045;BME280;63614;56.026;35.960;2023-09-30T05:12:31;99516.00;;;14.50;73.40
75045;BME280;63614;56.026;35.960;2023-09-30T05:14:56;99500.31;;;14.43;73.88
75045;BME280;63614;56.026;35.960;2023-09-30T05:17:22;99503.72;;;14.44;74.21
75045;BME280;63614;56.026;35.960;2023-09-30T05:19:47;99498.91;;;14.47;74.37
75045;BME280;63614;56.026;35.960;2023-09-30T05:22:13;99497.16;;;14.34;74.79
75045;BME280;63614;56.026;35.960;2023-09-30T05:24:39;99503.59;;;14.32;75.65
75045;BME280;63614;56.026;35.960;2023-09-30T05:27:04;99499.56;;;14.36;75.87
75045;BME280;63614;56.026;35.960;2023-09-30T05:29:30;99501.38;;;14.35;75.97
75045;BME280;63614;56.026;35.960;2023-09-30T05:31:58;99493.25;;;14.50;76.28
75045;BME280;63614;56.026;35.960;2023-09-30T05:34:24;99487.44;;;14.42;76.09
75045;BME280;63614;56.026;35.960;2023-09-30T05:36:49;99494.72;;;14.40;75.86
75045;BME280;63614;56.026;35.960;2023-09-30T05:39:16;99489.22;;;14.48;75.99
75045;BME280;63614;56.026;35.960;2023-09-30T05:41:45;99497.63;;;14.57;76.02
75045;BME280;63614;56.026;35.960;2023-09-30T05:44:12;99494.63;;;14.60;75.81
75045;BME280;63614;56.026;35.960;2023-09-30T05:46:39;99492.97;;;14.65;75.80
75045;BME280;63614;56.026;35.960;2023-09-30T05:49:05;99488.53;;;14.66;75.79
75045;BME280;63614;56.026;35.960;2023-09-30T05:51:35;99491.00;;;14.61;76.18
75045;BME280;63614;56.026;35.960;2023-09-30T05:54:00;99483.25;;;14.73;76.23
75045;BME280;63614;56.026;35.960;2023-09-30T05:56:26;99482.19;;;14.80;76.33
75045;BME280;63614;56.026;35.960;2023-09-30T05:58:52;99484.72;;;14.94;75.24
75045;BME280;63614;56.026;35.960;2023-09-30T06:01:18;99484.88;;;14.99;75.43
75045;BME280;63614;56.026;35.960;2023-09-30T06:03:47;99484.41;;;15.08;75.89
75045;BME280;63614;56.026;35.960;2023-09-30T06:06:13;99481.78;;;15.08;75.24
75045;BME280;63614;56.026;35.960;2023-09-30T06:08:41;99476.41;;;15.22;75.07
75045;BME280;63614;56.026;35.960;2023-09-30T06:11:06;99483.28;;;15.23;74.90
75045;BME280;63614;56.026;35.960;2023-09-30T06:13:32;99479.09;;;15.40;75.29
75045;BME280;63614;56.026;35.960;2023-09-30T06:15:58;99480.03;;;15.46;74.55
75045;BME280;63614;56.026;35.960;2023-09-30T06:18:23;99466.03;;;15.52;74.71
75045;BME280;63614;56.026;35.960;2023-09-30T06:20:49;99470.81;;;15.62;74.33
75045;BME280;63614;56.026;35.960;2023-09-30T06:23:16;99465.06;;;15.72;74.10
75045;BME280;63614;56.026;35.960;2023-09-30T06:25:42;99466.00;;;15.77;73.96
75045;BME280;63614;56.026;35.960;2023-09-30T06:28:08;99453.56;;;15.91;74.06
75045;BME280;63614;56.026;35.960;2023-09-30T06:30:34;99453.25;;;16.00;73.03
75045;BME280;63614;56.026;35.960;2023-09-30T06:33:00;99459.72;;;15.97;72.21
75045;BME280;63614;56.026;35.960;2023-09-30T06:35:26;99456.50;;;16.13;72.24
75045;BME280;63614;56.026;35.960;2023-09-30T06:37:52;99449.72;;;16.24;70.66
75045;BME280;63614;56.026;35.960;2023-09-30T06:40:17;99453.13;;;16.25;71.15
75045;BME280;63614;56.026;35.960;2023-09-30T06:42:44;99447.56;;;16.45;71.76
75045;BME280;63614;56.026;35.960;2023-09-30T06:45:10;99450.69;;;16.53;70.08
75045;BME280;63614;56.026;35.960;2023-09-30T06:47:36;99442.94;;;16.59;70.94
75045;BME280;63614;56.026;35.960;2023-09-30T06:50:08;99439.53;;;16.70;69.67
75045;BME280;63614;56.026;35.960;2023-09-30T06:52:34;99438.63;;;16.76;69.74
75045;BME280;63614;56.026;35.960;2023-09-30T06:55:01;99442.09;;;16.88;68.69
75045;BME280;63614;56.026;35.960;2023-09-30T06:57:28;99438.22;;;16.91;69.01
75045;BME280;63614;56.026;35.960;2023-09-30T06:59:54;99437.19;;;16.92;68.22
75045;BME280;63614;56.026;35.960;2023-09-30T07:02:20;99432.84;;;17.10;68.76
75045;BME280;63614;56.026;35.960;2023-09-30T07:04:47;99432.28;;;17.31;68.28
75045;BME280;63614;56.026;35.960;2023-09-30T07:07:12;99426.53;;;17.46;67.20
75045;BME280;63614;56.026;35.960;2023-09-30T07:09:38;99422.75;;;17.42;66.38
75045;BME280;63614;56.026;35.960;2023-09-30T07:12:04;99432.81;;;17.57;66.41
75045;BME280;63614;56.026;35.960;2023-09-30T07:14:30;99426.72;;;17.68;66.54
75045;BME280;63614;56.026;35.960;2023-09-30T07:16:56;99425.09;;;17.79;65.98
75045;BME280;63614;56.026;35.960;2023-09-30T07:19:23;99424.28;;;17.90;66.59
75045;BME280;63614;56.026;35.960;2023-09-30T07:21:48;99432.44;;;18.06;66.34
75045;BME280;63614;56.026;35.960;2023-09-30T07:24:14;99428.16;;;18.17;65.37
75045;BME280;63614;56.026;35.960;2023-09-30T07:26:40;99422.50;;;18.25;65.30
75045;BME280;63614;56.026;35.960;2023-09-30T07:29:06;99421.81;;;18.29;65.31
75045;BME280;63614;56.026;35.960;2023-09-30T07:31:35;99420.78;;;18.30;64.04
75045;BME280;63614;56.026;35.960;2023-09-30T07:34:01;99417.91;;;18.32;64.21
75045;BME280;63614;56.026;35.960;2023-09-30T07:36:27;99410.41;;;18.41;64.56
75045;BME280;63614;56.026;35.960;2023-09-30T07:38:52;99402.69;;;18.51;64.43
75045;BME280;63614;56.026;35.960;2023-09-30T07:41:19;99410.66;;;18.56;64.06
75045;BME280;63614;56.026;35.960;2023-09-30T07:43:45;99407.38;;;18.66;63.97
75045;BME280;63614;56.026;35.960;2023-09-30T07:46:10;99406.72;;;18.76;63.59
75045;BME280;63614;56.026;35.960;2023-09-30T07:48:36;99406.13;;;18.85;63.45
75045;BME280;63614;56.026;35.960;2023-09-30T07:51:02;99407.00;;;18.91;62.12
75045;BME280;63614;56.026;35.960;2023-09-30T07:53:29;99407.63;;;18.98;62.15
75045;BME280;63614;56.026;35.960;2023-09-30T07:55:54;99409.34;;;19.10;62.67
75045;BME280;63614;56.026;35.960;2023-09-30T07:58:21;99408.13;;;19.17;62.61
75045;BME280;63614;56.026;35.960;2023-09-30T08:00:47;99397.75;;;19.28;62.13
75045;BME280;63614;56.026;35.960;2023-09-30T08:03:13;99397.31;;;19.36;62.38
75045;BME280;63614;56.026;35.960;2023-09-30T08:05:39;99398.09;;;19.36;62.09
75045;BME280;63614;56.026;35.960;2023-09-30T08:08:05;99393.38;;;19.38;62.24
75045;BME280;63614;56.026;35.960;2023-09-30T08:10:31;99399.22;;;19.40;60.65
75045;BME280;63614;56.026;35.960;2023-09-30T08:12:57;99395.59;;;19.47;60.92
75045;BME280;63614;56.026;35.960;2023-09-30T08:15:27;99401.19;;;19.50;61.45
75045;BME280;63614;56.026;35.960;2023-09-30T08:17:52;99389.66;;;19.56;60.81
75045;BME280;63614;56.026;35.960;2023-09-30T08:20:18;99391.47;;;19.56;60.83
75045;BME280;63614;56.026;35.960;2023-09-30T08:22:44;99392.34;;;19.62;60.77
75045;BME280;63614;56.026;35.960;2023-09-30T08:25:10;99388.22;;;19.71;60.23
75045;BME280;63614;56.026;35.960;2023-09-30T08:27:36;99383.31;;;19.80;60.00
75045;BME280;63614;56.026;35.960;2023-09-30T08:30:02;99378.31;;;19.83;59.75
75045;BME280;63614;56.026;35.960;2023-09-30T08:32:37;99376.31;;;19.90;60.57
75045;BME280;63614;56.026;35.960;2023-09-30T08:35:03;99375.19;;;19.86;59.55
75045;BME280;63614;56.026;35.960;2023-09-30T08:37:29;99374.13;;;19.82;58.73
75045;BME280;63614;56.026;35.960;2023-09-30T08:39:55;99370.47;;;19.88;59.03
75045;BME280;63614;56.026;35.960;2023-09-30T08:42:20;99367.38;;;19.96;60.90
75045;BME280;63614;56.026;35.960;2023-09-30T08:44:47;99366.69;;;20.06;59.49
75045;BME280;63614;56.026;35.960;2023-09-30T08:47:13;99361.63;;;20.00;59.73
75045;BME280;63614;56.026;35.960;2023-09-30T08:49:40;99366.69;;;20.06;59.39
75045;BME280;63614;56.026;35.960;2023-09-30T08:52:06;99357.41;;;20.04;58.50
75045;BME280;63614;56.026;35.960;2023-09-30T08:54:34;99358.50;;;20.08;59.20
75045;BME280;63614;56.026;35.960;2023-09-30T08:57:00;99355.44;;;20.21;58.48
75045;BME280;63614;56.026;35.960;2023-09-30T08:59:26;99352.88;;;20.26;58.36
75045;BME280;63614;56.026;35.960;2023-09-30T09:01:52;99356.13;;;20.39;58.64
75045;BME280;63614;56.026;35.960;2023-09-30T09:04:18;99354.31;;;20.44;58.12
75045;BME280;63614;56.026;35.960;2023-09-30T09:06:44;99345.63;;;20.49;57.46
75045;BME280;63614;56.026;35.960;2023-09-30T09:09:16;99351.19;;;20.53;57.34
75045;BME280;63614;56.026;35.960;2023-09-30T09:11:47;99348.06;;;20.61;57.22
75045;BME280;63614;56.026;35.960;2023-09-30T09:14:14;99345.25;;;20.67;56.54
75045;BME280;63614;56.026;35.960;2023-09-30T09:16:54;99334.97;;;20.71;55.88
75045;BME280;63614;56.026;35.960;2023-09-30T09:19:21;99336.06;;;20.80;55.65
75045;BME280;63614;56.026;35.960;2023-09-30T09:21:59;99337.94;;;20.85;55.97
75045;BME280;63614;56.026;35.960;2023-09-30T09:24:32;99334.03;;;20.93;56.03
75045;BME280;63614;56.026;35.960;2023-09-30T09:27:08;99327.97;;;21.02;55.73
75045;BME280;63614;56.026;35.960;2023-09-30T09:29:35;99331.47;;;21.08;54.28
75045;BME280;63614;56.026;35.960;2023-09-30T09:34:37;99326.94;;;21.09;51.83
75045;BME280;63614;56.026;35.960;2023-09-30T09:37:12;99324.09;;;21.20;52.38
75045;BME280;63614;56.026;35.960;2023-09-30T09:39:38;99318.00;;;21.25;51.88
75045;BME280;63614;56.026;35.960;2023-09-30T09:42:03;99319.38;;;21.38;51.29
75045;BME280;63614;56.026;35.960;2023-09-30T09:44:34;99310.13;;;21.46;51.09
75045;BME280;63614;56.026;35.960;2023-09-30T09:47:05;99313.91;;;21.50;50.14
75045;BME280;63614;56.026;35.960;2023-09-30T09:49:35;99314.69;;;21.55;51.01
75045;BME280;63614;56.026;35.960;2023-09-30T09:52:01;99306.47;;;21.52;50.23
75045;BME280;63614;56.026;35.960;2023-09-30T09:54:27;99303.00;;;21.46;50.17
75045;BME280;63614;56.026;35.960;2023-09-30T09:56:54;99306.72;;;21.45;50.82
75045;BME280;63614;56.026;35.960;2023-09-30T09:59:22;99296.72;;;21.52;49.98
75045;BME280;63614;56.026;35.960;2023-09-30T10:01:50;99300.66;;;21.60;50.05
75045;BME280;63614;56.026;35.960;2023-09-30T10:04:17;99294.34;;;21.61;49.84
75045;BME280;63614;56.026;35.960;2023-09-30T10:06:47;99295.13;;;21.62;49.88
75045;BME280;63614;56.026;35.960;2023-09-30T10:09:19;99294.34;;;21.61;50.09
75045;BME280;63614;56.026;35.960;2023-09-30T10:11:45;99293.53;;;21.61;50.36
75045;BME280;63614;56.026;35.960;2023-09-30T10:14:31;99292.22;;;21.63;50.71
75045;BME280;63614;56.026;35.960;2023-09-30T10:17:02;99288.50;;;21.64;50.73
75045;BME280;63614;56.026;35.960;2023-09-30T10:19:29;99293.25;;;21.57;50.03
75045;BME280;63614;56.026;35.960;2023-09-30T10:22:39;99285.31;;;21.57;50.36
75045;BME280;63614;56.026;35.960;2023-09-30T10:24:56;99282.94;;;21.55;50.84
75045;BME280;63614;56.026;35.960;2023-09-30T10:35:19;99270.72;;;21.44;51.16
75045;BME280;63614;56.026;35.960;2023-09-30T10:37:48;99277.06;;;21.43;51.06
75045;BME280;63614;56.026;35.960;2023-09-30T10:40:26;99275.47;;;21.42;51.70
75045;BME280;63614;56.026;35.960;2023-09-30T10:42:54;99277.88;;;21.44;51.87
75045;BME280;63614;56.026;35.960;2023-09-30T10:45:42;99269.41;;;21.47;52.00
75045;BME280;63614;56.026;35.960;2023-09-30T10:50:52;99276.28;;;21.48;51.44
75045;BME280;63614;56.026;35.960;2023-09-30T10:53:24;99273.34;;;21.39;50.82
75045;BME280;63614;56.026;35.960;2023-09-30T10:55:59;99264.06;;;21.31;51.58
75045;BME280;63614;56.026;35.960;2023-09-30T11:01:14;99261.41;;;21.21;52.08
75045;BME280;63614;56.026;35.960;2023-09-30T11:03:42;99259.81;;;21.20;52.16
75045;BME280;63614;56.026;35.960;2023-09-30T11:06:15;99257.72;;;21.27;52.21
75045;BME280;63614;56.026;35.960;2023-09-30T11:08:55;99259.59;;;21.42;52.34
75045;BME280;63614;56.026;35.960;2023-09-30T11:14:27;99248.78;;;21.54;51.80
75045;BME280;63614;56.026;35.960;2023-09-30T11:16:54;99249.34;;;21.56;51.67
75045;BME280;63614;56.026;35.960;2023-09-30T11:19:22;99247.22;;;21.53;51.68
75045;BME280;63614;56.026;35.960;2023-09-30T11:21:48;99244.84;;;21.51;50.25
75045;BME280;63614;56.026;35.960;2023-09-30T11:24:15;99235.56;;;21.49;51.16
75045;BME280;63614;56.026;35.960;2023-09-30T11:26:41;99225.47;;;21.46;51.06
75045;BME280;63614;56.026;35.960;2023-09-30T11:29:15;99228.16;;;21.51;50.33
75045;BME280;63614;56.026;35.960;2023-09-30T11:31:43;99233.72;;;21.49;50.24
75045;BME280;63614;56.026;35.960;2023-09-30T11:34:09;99228.69;;;21.53;50.16
75045;BME280;63614;56.026;35.960;2023-09-30T11:36:41;99230.00;;;21.55;50.08
75045;BME280;63614;56.026;35.960;2023-09-30T11:39:21;99222.88;;;21.51;50.04
75045;BME280;63614;56.026;35.960;2023-09-30T11:41:55;99222.81;;;21.46;50.40
75045;BME280;63614;56.026;35.960;2023-09-30T11:44:25;99224.94;;;21.44;49.85
75045;BME280;63614;56.026;35.960;2023-09-30T11:47:00;99224.19;;;21.48;49.85
75045;BME280;63614;56.026;35.960;2023-09-30T11:49:36;99220.22;;;21.51;50.26
75045;BME280;63614;56.026;35.960;2023-09-30T11:52:10;99228.16;;;21.51;50.00
75045;BME280;63614;56.026;35.960;2023-09-30T11:54:39;99223.63;;;21.46;49.84
75045;BME280;63614;56.026;35.960;2023-09-30T11:57:13;99220.19;;;21.40;50.44
75045;BME280;63614;56.026;35.960;2023-09-30T11:59:42;99219.38;;;21.35;50.56
75045;BME280;63614;56.026;35.960;2023-09-30T12:02:09;99215.41;;;21.37;50.82
75045;BME280;63614;56.026;35.960;2023-09-30T12:04:38;99211.44;;;21.40;51.17
75045;BME280;63614;56.026;35.960;2023-09-30T12:07:07;99215.41;;;21.42;51.04
75045;BME280;63614;56.026;35.960;2023-09-30T12:09:37;99207.47;;;21.42;50.43
75045;BME280;63614;56.026;35.960;2023-09-30T12:12:03;99211.44;;;21.30;50.02
75045;BME280;63614;56.026;35.960;2023-09-30T12:14:29;99205.59;;;21.28;50.08
75045;BME280;63614;56.026;35.960;2023-09-30T12:17:00;99215.13;;;21.23;50.51
75045;BME280;63614;56.026;35.960;2023-09-30T12:19:26;99209.84;;;21.29;50.74
75045;BME280;63614;56.026;35.960;2023-09-30T12:21:52;99206.69;;;21.32;51.11
75045;BME280;63614;56.026;35.960;2023-09-30T12:24:18;99204.03;;;21.37;51.41
75045;BME280;63614;56.026;35.960;2023-09-30T12:26:49;99203.81;;;21.49;50.73
75045;BME280;63614;56.026;35.960;2023-09-30T12:29:17;99196.16;;;21.52;50.13
75045;BME280;63614;56.026;35.960;2023-09-30T12:31:46;99201.97;;;21.59;50.11
75045;BME280;63614;56.026;35.960;2023-09-30T12:34:12;99201.44;;;21.57;50.08
75045;BME280;63614;56.026;35.960;2023-09-30T12:36:40;99203.56;;;21.61;49.66
75045;BME280;63614;56.026;35.960;2023-09-30T12:39:07;99199.84;;;21.62;49.73
75045;BME280;63614;56.026;35.960;2023-09-30T12:41:40;99197.75;;;21.64;50.19
75045;BME280;63614;56.026;35.960;2023-09-30T12:44:06;99195.06;;;21.58;50.00
75045;BME280;63614;56.026;35.960;2023-09-30T12:46:32;99188.47;;;21.51;50.95
75045;BME280;63614;56.026;35.960;2023-09-30T12:49:04;99176.50;;;21.38;50.60
75045;BME280;63614;56.026;35.960;2023-09-30T12:51:30;99192.66;;;21.31;50.90
75045;BME280;63614;56.026;35.960;2023-09-30T12:53:56;99182.59;;;21.28;50.97
75045;BME280;63614;56.026;35.960;2023-09-30T12:56:26;99180.75;;;21.29;51.44
75045;BME280;63614;56.026;35.960;2023-09-30T12:58:57;99178.63;;;21.20;51.46
75045;BME280;63614;56.026;35.960;2023-09-30T13:01:27;99177.28;;;21.13;51.51
75045;BME280;63614;56.026;35.960;2023-09-30T13:03:54;99169.88;;;21.10;51.50
75045;BME280;63614;56.026;35.960;2023-09-30T13:06:27;99173.84;;;21.07;51.12
75045;BME280;63614;56.026;35.960;2023-09-30T13:08:55;99169.88;;;21.04;51.37